DLH312 EDDM-KLAX
Flight info
| Callsign | DLH312 |
|---|---|
| Flight time | N/A |
| Altitude | 36000 |
| Route | INPUD2S/26L INPUD Y102 UPALA Z109 BAMAS L604 GASKA DCT MASEK DCT SPY DCT MIMVA DCT GETNO DCT KUGUR DCT SUNOT/M083F370 NATA HOIST/N0489F380 DCT 5430N06000W 53N070W 51N080W 4830N09000W DCT KP12G/N0488F400 DCT KP84A DCT KD63U DCT KU51Q DCT PROMT Q88 HAKMN ANJLL4 |
| Aircraft | A388/J-SADE2E3GHIJ3J4J5LM1OP2RWXYZ/LB1D1 |
Departure
| Time | 2026-05-05 10:15 |
|---|---|
| Airport | Munich Airport (EDDM) |
Arrival
| Time | N/A |
|---|---|
| Airport | Los Angeles International Airport (KLAX) |
| Time | Latitude | Longitude | Altitude | Speed | Heading |
|---|---|---|---|---|---|
| 2026-05-05 09:20 | 48.35242 | 11.80046 | 1472 ft | 0 kts | 263° |
| 2026-05-05 10:04 | 48.35242 | 11.80049 | 1461 ft | 2 kts | 264° |
| 2026-05-05 10:04 | 48.35244 | 11.80089 | 1469 ft | 4 kts | 268° |
| 2026-05-05 10:04 | 48.35246 | 11.80127 | 1470 ft | 4 kts | 254° |
| 2026-05-05 10:05 | 48.35255 | 11.80151 | 1470 ft | 3 kts | 226° |
| 2026-05-05 10:05 | 48.35273 | 11.80171 | 1472 ft | 4 kts | 200° |
| 2026-05-05 10:05 | 48.35296 | 11.80175 | 1469 ft | 4 kts | 172° |
| 2026-05-05 10:05 | 48.35317 | 11.80170 | 1472 ft | 0 kts | 174° |
| 2026-05-05 10:09 | 48.35316 | 11.80170 | 1472 ft | 1 kts | 174° |
| 2026-05-05 10:10 | 48.35252 | 11.80182 | 1462 ft | 17 kts | 174° |
| 2026-05-05 10:10 | 48.35145 | 11.80173 | 1464 ft | 12 kts | 232° |
| 2026-05-05 10:10 | 48.35119 | 11.80015 | 1466 ft | 18 kts | 263° |
| 2026-05-05 10:10 | 48.35104 | 11.79827 | 1469 ft | 18 kts | 263° |
| 2026-05-05 10:11 | 48.35087 | 11.79690 | 1472 ft | 10 kts | 231° |
| 2026-05-05 10:11 | 48.35000 | 11.79670 | 1467 ft | 15 kts | 173° |
| 2026-05-05 10:11 | 48.34891 | 11.79690 | 1468 ft | 16 kts | 173° |
| 2026-05-05 10:11 | 48.34810 | 11.79763 | 1464 ft | 14 kts | 104° |
| 2026-05-05 10:12 | 48.34814 | 11.79914 | 1472 ft | 22 kts | 84° |
| 2026-05-05 10:12 | 48.34835 | 11.80155 | 1465 ft | 23 kts | 82° |
| 2026-05-05 10:12 | 48.34852 | 11.80388 | 1463 ft | 22 kts | 91° |
| 2026-05-05 10:12 | 48.34777 | 11.80551 | 1461 ft | 19 kts | 169° |
| 2026-05-05 10:13 | 48.34662 | 11.80575 | 1460 ft | 22 kts | 182° |
| 2026-05-05 10:13 | 48.34542 | 11.80467 | 1458 ft | 20 kts | 226° |
| 2026-05-05 10:13 | 48.34470 | 11.80305 | 1463 ft | 17 kts | 252° |
| 2026-05-05 10:13 | 48.34460 | 11.80236 | 1464 ft | 0 kts | 263° |
| 2026-05-05 10:14 | 48.34444 | 11.80022 | 1471 ft | 53 kts | 263° |
| 2026-05-05 10:14 | 48.34372 | 11.79092 | 1469 ft | 123 kts | 263° |
| 2026-05-05 10:15 | 48.34253 | 11.77559 | 1474 ft | 169 kts | 263° |
| 2026-05-05 10:15 | 48.34126 | 11.75718 | 1725 ft | 181 kts | 265° |
| 2026-05-05 10:15 | 48.34029 | 11.73766 | 2076 ft | 191 kts | 267° |
| 2026-05-05 10:15 | 48.33945 | 11.71671 | 2405 ft | 211 kts | 266° |
| 2026-05-05 10:16 | 48.33841 | 11.69365 | 2758 ft | 231 kts | 269° |
| 2026-05-05 10:16 | 48.33997 | 11.66886 | 3233 ft | 245 kts | 285° |
| 2026-05-05 10:16 | 48.34656 | 11.64498 | 3879 ft | 249 kts | 303° |
| 2026-05-05 10:16 | 48.35845 | 11.62706 | 4621 ft | 246 kts | 331° |
| 2026-05-05 10:17 | 48.37486 | 11.62042 | 5289 ft | 252 kts | 1° |
| 2026-05-05 10:17 | 48.39231 | 11.62522 | 5827 ft | 261 kts | 14° |
| 2026-05-05 10:17 | 48.41053 | 11.63113 | 6206 ft | 277 kts | 4° |
| 2026-05-05 10:17 | 48.43002 | 11.63078 | 6808 ft | 283 kts | 354° |
| 2026-05-05 10:18 | 48.44963 | 11.62692 | 7436 ft | 287 kts | 350° |
| 2026-05-05 10:18 | 48.46944 | 11.62187 | 8076 ft | 291 kts | 350° |
| 2026-05-05 10:18 | 48.48955 | 11.61672 | 8696 ft | 294 kts | 351° |
| 2026-05-05 10:18 | 48.50963 | 11.61179 | 9297 ft | 299 kts | 351° |
| 2026-05-05 10:19 | 48.53020 | 11.60693 | 9942 ft | 300 kts | 351° |
| 2026-05-05 10:19 | 48.55099 | 11.60199 | 10592 ft | 302 kts | 351° |
| 2026-05-05 10:19 | 48.57176 | 11.59614 | 11156 ft | 306 kts | 343° |
| 2026-05-05 10:19 | 48.59177 | 11.58532 | 11694 ft | 310 kts | 337° |
| 2026-05-05 10:20 | 48.61231 | 11.57315 | 11866 ft | 327 kts | 338° |
| 2026-05-05 10:20 | 48.63365 | 11.56075 | 12020 ft | 342 kts | 338° |
| 2026-05-05 10:20 | 48.65639 | 11.54760 | 12221 ft | 356 kts | 338° |
| 2026-05-05 10:20 | 48.67961 | 11.53420 | 12709 ft | 359 kts | 338° |
| 2026-05-05 10:21 | 48.70276 | 11.52088 | 13228 ft | 362 kts | 338° |
| 2026-05-05 10:21 | 48.72640 | 11.50723 | 13751 ft | 365 kts | 338° |
| 2026-05-05 10:21 | 48.75011 | 11.49350 | 14266 ft | 368 kts | 338° |
| 2026-05-05 10:21 | 48.77359 | 11.47986 | 14753 ft | 370 kts | 337° |
| 2026-05-05 10:22 | 48.79762 | 11.46593 | 15227 ft | 373 kts | 337° |
| 2026-05-05 10:22 | 48.82176 | 11.45199 | 15846 ft | 368 kts | 345° |
| 2026-05-05 10:22 | 48.84402 | 11.44179 | 18071 ft | 285 kts | 342° |
| 2026-05-05 10:22 | 48.86039 | 11.43515 | 20462 ft | 222 kts | 342° |
| 2026-05-05 10:23 | 48.87590 | 11.42900 | 20453 ft | 245 kts | 343° |
| 2026-05-05 10:23 | 48.89360 | 11.42209 | 20076 ft | 280 kts | 344° |
| 2026-05-05 10:23 | 48.91266 | 11.41519 | 20430 ft | 283 kts | 344° |
| 2026-05-05 10:23 | 48.93229 | 11.40788 | 20516 ft | 299 kts | 344° |
| 2026-05-05 10:24 | 48.95312 | 11.40061 | 20624 ft | 314 kts | 346° |
| 2026-05-05 10:24 | 48.97479 | 11.39330 | 20825 ft | 324 kts | 339° |
| 2026-05-05 10:24 | 48.99514 | 11.37820 | 20955 ft | 334 kts | 329° |
| 2026-05-05 10:24 | 49.01649 | 11.36190 | 21094 ft | 351 kts | 333° |
| 2026-05-05 10:25 | 49.03898 | 11.34648 | 21226 ft | 366 kts | 334° |
| 2026-05-05 10:25 | 49.06278 | 11.33021 | 21379 ft | 381 kts | 333° |
| 2026-05-05 10:25 | 49.08747 | 11.31294 | 21533 ft | 397 kts | 333° |
| 2026-05-05 10:25 | 49.11295 | 11.29480 | 21765 ft | 407 kts | 333° |
| 2026-05-05 10:26 | 49.13858 | 11.27639 | 22253 ft | 410 kts | 332° |
| 2026-05-05 10:26 | 49.16447 | 11.25766 | 22767 ft | 413 kts | 332° |
| 2026-05-05 10:26 | 49.19022 | 11.23903 | 23231 ft | 416 kts | 333° |
| 2026-05-05 10:26 | 49.21734 | 11.22325 | 23686 ft | 420 kts | 341° |
| 2026-05-05 10:27 | 49.24579 | 11.21309 | 24138 ft | 425 kts | 349° |
| 2026-05-05 10:27 | 49.27521 | 11.20591 | 24580 ft | 426 kts | 348° |
| 2026-05-05 10:27 | 49.30377 | 11.19847 | 24838 ft | 430 kts | 348° |
| 2026-05-05 10:27 | 49.33330 | 11.19061 | 25166 ft | 432 kts | 348° |
| 2026-05-05 10:28 | 49.36260 | 11.18283 | 25509 ft | 433 kts | 348° |
| 2026-05-05 10:28 | 49.39241 | 11.17495 | 25827 ft | 435 kts | 348° |
| 2026-05-05 10:28 | 49.42222 | 11.16710 | 26153 ft | 437 kts | 348° |
| 2026-05-05 10:28 | 49.45236 | 11.15918 | 26495 ft | 439 kts | 348° |
| 2026-05-05 10:29 | 49.48256 | 11.15123 | 26835 ft | 441 kts | 348° |
| 2026-05-05 10:29 | 49.51259 | 11.14332 | 27141 ft | 444 kts | 348° |
| 2026-05-05 10:29 | 49.54315 | 11.13530 | 27467 ft | 446 kts | 347° |
| 2026-05-05 10:29 | 49.57387 | 11.12720 | 27822 ft | 448 kts | 347° |
| 2026-05-05 10:30 | 49.60463 | 11.11905 | 28171 ft | 450 kts | 347° |
| 2026-05-05 10:30 | 49.63557 | 11.11083 | 28498 ft | 452 kts | 347° |
| 2026-05-05 10:30 | 49.66662 | 11.10260 | 28844 ft | 454 kts | 347° |
| 2026-05-05 10:30 | 49.69789 | 11.09432 | 29165 ft | 456 kts | 347° |
| 2026-05-05 10:31 | 49.72931 | 11.08598 | 29495 ft | 458 kts | 347° |
| 2026-05-05 10:31 | 49.76046 | 11.07769 | 29822 ft | 460 kts | 347° |
| 2026-05-05 10:31 | 49.79214 | 11.06926 | 30154 ft | 462 kts | 347° |
| 2026-05-05 10:31 | 49.82397 | 11.06077 | 30484 ft | 465 kts | 347° |
| 2026-05-05 10:32 | 49.85543 | 11.04929 | 30763 ft | 463 kts | 336° |
| 2026-05-05 10:32 | 49.88462 | 11.02827 | 31089 ft | 459 kts | 324° |
| 2026-05-05 10:32 | 49.90968 | 10.99910 | 31375 ft | 454 kts | 312° |
| 2026-05-05 10:32 | 49.93153 | 10.96366 | 31658 ft | 454 kts | 309° |
| 2026-05-05 10:33 | 49.95324 | 10.92783 | 31965 ft | 457 kts | 309° |
| 2026-05-05 10:33 | 49.97515 | 10.89197 | 32261 ft | 459 kts | 309° |
| 2026-05-05 10:33 | 49.99709 | 10.85622 | 32536 ft | 461 kts | 309° |
| 2026-05-05 10:33 | 50.01930 | 10.82008 | 32876 ft | 462 kts | 309° |
| 2026-05-05 10:34 | 50.04148 | 10.78399 | 33288 ft | 461 kts | 309° |
| 2026-05-05 10:34 | 50.06368 | 10.74778 | 33499 ft | 464 kts | 309° |
| 2026-05-05 10:34 | 50.08609 | 10.71118 | 33785 ft | 466 kts | 309° |
| 2026-05-05 10:34 | 50.10854 | 10.67447 | 34030 ft | 468 kts | 309° |
| 2026-05-05 10:35 | 50.13106 | 10.63761 | 34298 ft | 470 kts | 309° |
| 2026-05-05 10:35 | 50.15327 | 10.60119 | 34509 ft | 473 kts | 309° |
| 2026-05-05 10:35 | 50.17626 | 10.56345 | 34793 ft | 474 kts | 308° |
| 2026-05-05 10:35 | 50.19864 | 10.52662 | 35121 ft | 474 kts | 308° |
| 2026-05-05 10:36 | 50.22134 | 10.48920 | 35454 ft | 474 kts | 308° |
| 2026-05-05 10:36 | 50.24410 | 10.45191 | 35756 ft | 475 kts | 309° |
| 2026-05-05 10:36 | 50.26731 | 10.41463 | 35858 ft | 480 kts | 309° |
| 2026-05-05 10:36 | 50.29079 | 10.37705 | 35853 ft | 481 kts | 309° |
| 2026-05-05 10:37 | 50.33709 | 10.30277 | 35855 ft | 478 kts | 309° |
| 2026-05-05 10:37 | 50.38249 | 10.22676 | 35859 ft | 477 kts | 306° |
| 2026-05-05 10:38 | 50.42576 | 10.14795 | 35863 ft | 477 kts | 306° |
| 2026-05-05 10:38 | 50.46921 | 10.06931 | 35850 ft | 476 kts | 306° |
| 2026-05-05 10:39 | 50.51280 | 9.99095 | 35857 ft | 476 kts | 306° |
| 2026-05-05 10:39 | 50.55630 | 9.91261 | 35841 ft | 476 kts | 306° |
| 2026-05-05 10:40 | 50.59953 | 9.83438 | 35859 ft | 476 kts | 306° |
| 2026-05-05 10:40 | 50.64307 | 9.75542 | 35865 ft | 476 kts | 306° |
| 2026-05-05 10:41 | 50.68655 | 9.67632 | 35855 ft | 476 kts | 306° |
| 2026-05-05 10:41 | 50.72898 | 9.59701 | 35851 ft | 473 kts | 302° |
| 2026-05-05 10:42 | 50.78311 | 9.46832 | 35853 ft | 470 kts | 298° |
| 2026-05-05 10:43 | 50.81923 | 9.38196 | 35850 ft | 470 kts | 298° |
| 2026-05-05 10:43 | 50.85492 | 9.29594 | 35854 ft | 469 kts | 298° |
| 2026-05-05 10:44 | 50.89064 | 9.20938 | 35854 ft | 469 kts | 298° |
| 2026-05-05 10:44 | 50.92622 | 9.12282 | 35854 ft | 469 kts | 298° |
| 2026-05-05 10:45 | 50.96185 | 9.03587 | 35851 ft | 469 kts | 298° |
| 2026-05-05 10:45 | 50.99707 | 8.94967 | 35865 ft | 469 kts | 298° |
| 2026-05-05 10:46 | 51.03247 | 8.86261 | 35860 ft | 468 kts | 298° |
| 2026-05-05 10:46 | 51.06782 | 8.77549 | 35866 ft | 469 kts | 298° |
| 2026-05-05 10:47 | 51.10291 | 8.68873 | 35855 ft | 468 kts | 298° |
| 2026-05-05 10:47 | 51.13811 | 8.60122 | 35863 ft | 468 kts | 298° |
| 2026-05-05 10:48 | 51.17304 | 8.51418 | 35858 ft | 467 kts | 297° |
| 2026-05-05 10:48 | 51.20806 | 8.42678 | 35856 ft | 467 kts | 298° |
| 2026-05-05 10:49 | 51.24288 | 8.33960 | 35871 ft | 467 kts | 297° |
| 2026-05-05 10:49 | 51.27748 | 8.25251 | 35859 ft | 467 kts | 297° |
| 2026-05-05 10:50 | 51.31224 | 8.16477 | 35879 ft | 467 kts | 297° |
| 2026-05-05 10:50 | 51.34692 | 8.07691 | 35885 ft | 466 kts | 297° |
| 2026-05-05 10:51 | 51.38148 | 7.98898 | 35888 ft | 466 kts | 297° |
| 2026-05-05 10:51 | 51.41583 | 7.90143 | 35888 ft | 466 kts | 297° |
| 2026-05-05 10:52 | 51.45014 | 7.81366 | 35884 ft | 466 kts | 297° |
| 2026-05-05 10:52 | 51.48430 | 7.72584 | 35884 ft | 466 kts | 297° |
| 2026-05-05 10:53 | 51.51856 | 7.63765 | 35885 ft | 466 kts | 297° |
| 2026-05-05 10:53 | 51.55205 | 7.55113 | 35883 ft | 465 kts | 297° |
| 2026-05-05 10:54 | 51.58625 | 7.46243 | 35864 ft | 466 kts | 297° |
| 2026-05-05 10:54 | 51.62034 | 7.37370 | 35880 ft | 466 kts | 297° |
| 2026-05-05 10:55 | 51.65438 | 7.28474 | 35884 ft | 466 kts | 297° |
| 2026-05-05 10:55 | 51.68819 | 7.19615 | 35879 ft | 467 kts | 297° |
| 2026-05-05 10:56 | 51.72212 | 7.10695 | 35892 ft | 467 kts | 297° |
| 2026-05-05 10:56 | 51.75599 | 7.01750 | 35896 ft | 468 kts | 297° |
| 2026-05-05 10:57 | 51.78418 | 6.94287 | 35891 ft | 468 kts | 296° |
| 2026-05-05 10:57 | 51.82354 | 6.83827 | 35894 ft | 468 kts | 297° |
| 2026-05-05 10:58 | 51.85160 | 6.76348 | 35905 ft | 468 kts | 296° |
| 2026-05-05 10:58 | 51.88520 | 6.67360 | 35918 ft | 468 kts | 296° |
| 2026-05-05 10:59 | 51.91884 | 6.58318 | 35917 ft | 467 kts | 296° |
| 2026-05-05 10:59 | 51.95214 | 6.49352 | 35913 ft | 467 kts | 296° |
| 2026-05-05 11:00 | 51.98567 | 6.40288 | 35925 ft | 467 kts | 296° |
| 2026-05-05 11:00 | 52.01909 | 6.31236 | 35926 ft | 467 kts | 297° |
| 2026-05-05 11:01 | 52.05239 | 6.22169 | 35933 ft | 466 kts | 296° |
| 2026-05-05 11:01 | 52.08528 | 6.13172 | 35935 ft | 466 kts | 296° |
| 2026-05-05 11:02 | 52.11835 | 6.04093 | 35941 ft | 465 kts | 296° |
| 2026-05-05 11:02 | 52.15105 | 5.95090 | 35928 ft | 465 kts | 296° |
| 2026-05-05 11:03 | 52.18395 | 5.86002 | 35927 ft | 465 kts | 296° |
| 2026-05-05 11:03 | 52.21676 | 5.76911 | 35937 ft | 465 kts | 296° |
| 2026-05-05 11:04 | 52.24929 | 5.67858 | 35936 ft | 465 kts | 296° |
| 2026-05-05 11:04 | 52.28200 | 5.58720 | 35933 ft | 465 kts | 296° |
| 2026-05-05 11:05 | 52.31467 | 5.49566 | 35931 ft | 466 kts | 296° |
| 2026-05-05 11:05 | 52.34704 | 5.40460 | 35931 ft | 466 kts | 296° |
| 2026-05-05 11:06 | 52.37965 | 5.31258 | 35935 ft | 467 kts | 296° |
| 2026-05-05 11:06 | 52.41177 | 5.22156 | 35935 ft | 468 kts | 296° |
| 2026-05-05 11:07 | 52.44456 | 5.12824 | 35940 ft | 468 kts | 296° |
| 2026-05-05 11:07 | 52.47690 | 5.03589 | 35943 ft | 469 kts | 296° |
| 2026-05-05 11:08 | 52.50952 | 4.94278 | 35944 ft | 470 kts | 296° |
| 2026-05-05 11:08 | 52.54201 | 4.84961 | 35947 ft | 471 kts | 296° |
| 2026-05-05 11:09 | 52.57585 | 4.75705 | 35951 ft | 473 kts | 298° |
| 2026-05-05 11:09 | 52.61009 | 4.66571 | 35963 ft | 473 kts | 298° |
| 2026-05-05 11:10 | 52.64443 | 4.57315 | 35964 ft | 474 kts | 297° |
| 2026-05-05 11:10 | 52.67792 | 4.48216 | 35974 ft | 474 kts | 297° |
| 2026-05-05 11:11 | 52.71164 | 4.39026 | 35976 ft | 474 kts | 297° |
| 2026-05-05 11:11 | 52.74565 | 4.29717 | 35970 ft | 474 kts | 297° |
| 2026-05-05 11:12 | 52.77961 | 4.20390 | 35975 ft | 473 kts | 297° |
| 2026-05-05 11:12 | 52.81327 | 4.11112 | 35970 ft | 473 kts | 297° |
| 2026-05-05 11:13 | 52.84701 | 4.01773 | 35977 ft | 472 kts | 297° |
| 2026-05-05 11:13 | 52.88065 | 3.92416 | 35962 ft | 473 kts | 297° |
| 2026-05-05 11:14 | 52.91411 | 3.83084 | 35976 ft | 474 kts | 297° |
| 2026-05-05 11:14 | 52.94777 | 3.73674 | 35995 ft | 474 kts | 297° |
| 2026-05-05 11:15 | 52.98098 | 3.64209 | 35985 ft | 473 kts | 292° |
| 2026-05-05 11:15 | 53.00085 | 3.53961 | 35997 ft | 469 kts | 282° |
| 2026-05-05 11:16 | 53.01765 | 3.43447 | 36003 ft | 471 kts | 283° |
| 2026-05-05 11:16 | 53.03480 | 3.32932 | 36003 ft | 472 kts | 283° |
| 2026-05-05 11:17 | 53.05203 | 3.22379 | 36007 ft | 472 kts | 283° |
| 2026-05-05 11:17 | 53.06901 | 3.11879 | 36004 ft | 473 kts | 283° |
| 2026-05-05 11:18 | 53.08597 | 3.01314 | 35997 ft | 473 kts | 283° |
| 2026-05-05 11:18 | 53.10282 | 2.90726 | 35993 ft | 473 kts | 282° |
| 2026-05-05 11:19 | 53.11965 | 2.80120 | 35998 ft | 473 kts | 283° |
| 2026-05-05 11:19 | 53.13626 | 2.69581 | 35991 ft | 473 kts | 282° |
| 2026-05-05 11:20 | 53.15278 | 2.59008 | 35996 ft | 473 kts | 282° |
| 2026-05-05 11:20 | 53.16931 | 2.48359 | 35995 ft | 474 kts | 282° |
| 2026-05-05 11:21 | 53.18568 | 2.37725 | 35996 ft | 474 kts | 282° |
| 2026-05-05 11:21 | 53.20203 | 2.27068 | 35992 ft | 474 kts | 282° |
| 2026-05-05 11:22 | 53.21828 | 2.16398 | 35988 ft | 474 kts | 282° |
| 2026-05-05 11:22 | 53.23438 | 2.05767 | 36003 ft | 474 kts | 282° |
| 2026-05-05 11:23 | 53.25020 | 1.95230 | 36000 ft | 474 kts | 282° |
| 2026-05-05 11:23 | 53.26616 | 1.84552 | 35999 ft | 475 kts | 282° |
| 2026-05-05 11:24 | 53.28203 | 1.73826 | 36000 ft | 475 kts | 282° |
| 2026-05-05 11:24 | 53.29775 | 1.63163 | 35998 ft | 475 kts | 282° |
| 2026-05-05 11:25 | 53.31343 | 1.52459 | 36002 ft | 476 kts | 282° |
| 2026-05-05 11:25 | 53.32907 | 1.41698 | 36000 ft | 476 kts | 282° |
| 2026-05-05 11:26 | 53.34461 | 1.30914 | 36003 ft | 476 kts | 282° |
| 2026-05-05 11:26 | 53.36006 | 1.20165 | 36000 ft | 477 kts | 282° |
| 2026-05-05 11:27 | 53.37541 | 1.09360 | 36008 ft | 477 kts | 282° |
| 2026-05-05 11:27 | 53.39046 | 0.98694 | 35999 ft | 476 kts | 282° |
| 2026-05-05 11:28 | 53.40565 | 0.87864 | 35998 ft | 476 kts | 282° |
| 2026-05-05 11:28 | 53.42073 | 0.77036 | 35999 ft | 476 kts | 282° |
| 2026-05-05 11:29 | 53.43561 | 0.66298 | 36004 ft | 477 kts | 282° |
| 2026-05-05 11:29 | 53.45050 | 0.55429 | 36007 ft | 477 kts | 282° |
| 2026-05-05 11:30 | 53.46527 | 0.44581 | 36004 ft | 477 kts | 282° |
| 2026-05-05 11:30 | 53.47980 | 0.33838 | 36008 ft | 476 kts | 282° |
| 2026-05-05 11:31 | 53.49442 | 0.22956 | 36007 ft | 476 kts | 281° |
| 2026-05-05 11:31 | 53.50883 | 0.12142 | 36009 ft | 477 kts | 281° |
| 2026-05-05 11:32 | 53.52325 | 0.01253 | 36012 ft | 476 kts | 281° |
| 2026-05-05 11:32 | 53.53745 | -0.09565 | 35996 ft | 478 kts | 281° |
| 2026-05-05 11:33 | 53.55157 | -0.20405 | 36008 ft | 478 kts | 281° |
| 2026-05-05 11:33 | 53.56572 | -0.31369 | 36011 ft | 479 kts | 281° |
| 2026-05-05 11:34 | 53.57968 | -0.42267 | 36017 ft | 479 kts | 281° |
| 2026-05-05 11:34 | 53.59359 | -0.53189 | 36020 ft | 479 kts | 281° |
| 2026-05-05 11:35 | 53.60750 | -0.64183 | 36025 ft | 480 kts | 281° |
| 2026-05-05 11:35 | 53.62128 | -0.75173 | 36028 ft | 480 kts | 281° |
| 2026-05-05 11:36 | 53.63484 | -0.86091 | 36017 ft | 479 kts | 281° |
| 2026-05-05 11:36 | 53.64843 | -0.97113 | 36018 ft | 479 kts | 281° |
| 2026-05-05 11:37 | 53.66192 | -1.08129 | 36022 ft | 479 kts | 281° |
| 2026-05-05 11:37 | 53.67519 | -1.19066 | 36023 ft | 478 kts | 281° |
| 2026-05-05 11:38 | 53.68841 | -1.30058 | 36022 ft | 477 kts | 281° |
| 2026-05-05 11:38 | 53.70150 | -1.41017 | 36019 ft | 477 kts | 281° |
| 2026-05-05 11:39 | 53.71449 | -1.51985 | 36024 ft | 476 kts | 281° |
| 2026-05-05 11:39 | 53.72729 | -1.62879 | 36023 ft | 476 kts | 280° |
| 2026-05-05 11:40 | 53.73998 | -1.73790 | 36027 ft | 475 kts | 280° |
| 2026-05-05 11:40 | 53.75264 | -1.84760 | 36024 ft | 475 kts | 280° |
| 2026-05-05 11:41 | 53.76518 | -1.95720 | 36025 ft | 475 kts | 280° |
| 2026-05-05 11:41 | 53.77753 | -2.06593 | 36023 ft | 475 kts | 280° |
| 2026-05-05 11:42 | 53.78990 | -2.17579 | 36026 ft | 475 kts | 280° |
| 2026-05-05 11:42 | 53.80209 | -2.28538 | 36025 ft | 475 kts | 280° |
| 2026-05-05 11:43 | 53.81426 | -2.39534 | 36028 ft | 475 kts | 280° |
| 2026-05-05 11:43 | 53.82631 | -2.50547 | 36042 ft | 475 kts | 280° |
| 2026-05-05 11:44 | 53.83820 | -2.61488 | 36046 ft | 476 kts | 279° |
| 2026-05-05 11:44 | 53.85011 | -2.72551 | 36045 ft | 476 kts | 279° |
| 2026-05-05 11:45 | 53.85990 | -2.81743 | 36053 ft | 477 kts | 279° |
| 2026-05-05 11:45 | 53.87352 | -2.94624 | 36037 ft | 477 kts | 279° |
| 2026-05-05 11:46 | 53.88513 | -3.05716 | 36052 ft | 478 kts | 279° |
| 2026-05-05 11:46 | 53.89472 | -3.14946 | 36058 ft | 477 kts | 279° |
| 2026-05-05 11:47 | 53.90611 | -3.26018 | 36051 ft | 477 kts | 279° |
| 2026-05-05 11:47 | 53.91752 | -3.37115 | 36061 ft | 476 kts | 279° |
| 2026-05-05 11:48 | 53.94037 | -3.53299 | 36065 ft | 477 kts | 292° |
| 2026-05-05 11:48 | 53.96841 | -3.63498 | 36066 ft | 476 kts | 294° |
| 2026-05-05 11:49 | 53.99656 | -3.73682 | 36062 ft | 475 kts | 294° |
| 2026-05-05 11:49 | 54.02441 | -3.83788 | 36069 ft | 474 kts | 294° |
| 2026-05-05 11:50 | 54.05231 | -3.93955 | 36069 ft | 474 kts | 294° |
| 2026-05-05 11:50 | 54.08008 | -4.04120 | 36063 ft | 474 kts | 294° |
| 2026-05-05 11:51 | 54.10770 | -4.14310 | 36056 ft | 473 kts | 294° |
| 2026-05-05 11:51 | 54.13508 | -4.24451 | 36069 ft | 473 kts | 294° |
| 2026-05-05 11:52 | 54.16254 | -4.34662 | 36073 ft | 473 kts | 294° |
| 2026-05-05 11:52 | 54.18986 | -4.44863 | 36075 ft | 473 kts | 293° |
| 2026-05-05 11:53 | 54.21710 | -4.55084 | 36075 ft | 473 kts | 293° |
| 2026-05-05 11:53 | 54.24431 | -4.65337 | 36078 ft | 473 kts | 293° |
| 2026-05-05 11:54 | 54.27123 | -4.75526 | 36078 ft | 472 kts | 293° |
| 2026-05-05 11:54 | 54.29814 | -4.85761 | 36074 ft | 472 kts | 293° |
| 2026-05-05 11:55 | 54.32502 | -4.96022 | 36075 ft | 471 kts | 293° |
| 2026-05-05 11:55 | 54.35174 | -5.06293 | 36072 ft | 471 kts | 293° |
| 2026-05-05 11:56 | 54.37822 | -5.16499 | 36069 ft | 470 kts | 292° |
| 2026-05-05 11:56 | 54.40464 | -5.26719 | 36068 ft | 469 kts | 292° |
| 2026-05-05 11:57 | 54.43091 | -5.36931 | 36063 ft | 469 kts | 292° |
| 2026-05-05 11:57 | 54.45717 | -5.47207 | 36065 ft | 470 kts | 292° |
| 2026-05-05 11:58 | 54.48338 | -5.57486 | 36067 ft | 470 kts | 292° |
| 2026-05-05 11:58 | 54.50960 | -5.67826 | 36066 ft | 471 kts | 292° |
| 2026-05-05 11:59 | 54.53557 | -5.78122 | 36071 ft | 471 kts | 292° |
| 2026-05-05 11:59 | 54.56168 | -5.88512 | 36076 ft | 472 kts | 292° |
| 2026-05-05 12:00 | 54.58769 | -5.98918 | 36088 ft | 472 kts | 292° |
| 2026-05-05 12:00 | 54.61341 | -6.09235 | 36095 ft | 471 kts | 292° |
| 2026-05-05 12:01 | 54.63915 | -6.19638 | 36110 ft | 471 kts | 292° |
| 2026-05-05 12:01 | 54.66486 | -6.30066 | 36103 ft | 471 kts | 292° |
| 2026-05-05 12:02 | 54.69025 | -6.40404 | 36104 ft | 470 kts | 292° |
| 2026-05-05 12:02 | 54.71569 | -6.50833 | 36106 ft | 470 kts | 291° |
| 2026-05-05 12:03 | 54.74105 | -6.61279 | 36091 ft | 470 kts | 291° |
| 2026-05-05 12:03 | 54.76621 | -6.71677 | 36090 ft | 468 kts | 291° |
| 2026-05-05 12:04 | 54.79104 | -6.81991 | 36091 ft | 468 kts | 291° |
| 2026-05-05 12:04 | 54.81600 | -6.92403 | 36089 ft | 467 kts | 291° |
| 2026-05-05 12:05 | 54.84079 | -7.02797 | 36093 ft | 467 kts | 291° |
| 2026-05-05 12:05 | 54.86545 | -7.13199 | 36092 ft | 467 kts | 291° |
| 2026-05-05 12:06 | 54.88999 | -7.23597 | 36090 ft | 468 kts | 291° |
| 2026-05-05 12:06 | 54.91462 | -7.34074 | 36097 ft | 468 kts | 291° |
| 2026-05-05 12:07 | 54.93917 | -7.44567 | 36099 ft | 468 kts | 291° |
| 2026-05-05 12:07 | 54.96359 | -7.55045 | 36106 ft | 468 kts | 291° |
| 2026-05-05 12:08 | 54.98787 | -7.65551 | 36114 ft | 469 kts | 291° |
| 2026-05-05 12:08 | 55.01203 | -7.76040 | 36113 ft | 469 kts | 291° |
| 2026-05-05 12:09 | 55.03631 | -7.86627 | 36119 ft | 469 kts | 291° |
| 2026-05-05 12:09 | 55.06043 | -7.97201 | 36124 ft | 469 kts | 291° |
| 2026-05-05 12:10 | 55.08418 | -8.07671 | 36132 ft | 468 kts | 291° |
| 2026-05-05 12:10 | 55.10811 | -8.18258 | 36132 ft | 468 kts | 291° |
| 2026-05-05 12:11 | 55.13187 | -8.28843 | 36132 ft | 468 kts | 291° |
| 2026-05-05 12:11 | 55.15560 | -8.39449 | 36123 ft | 468 kts | 290° |
| 2026-05-05 12:12 | 55.17903 | -8.49975 | 36133 ft | 467 kts | 290° |
| 2026-05-05 12:12 | 55.20250 | -8.60588 | 36121 ft | 466 kts | 290° |
| 2026-05-05 12:13 | 55.22585 | -8.71190 | 36125 ft | 466 kts | 290° |
| 2026-05-05 12:13 | 55.24898 | -8.81736 | 36116 ft | 466 kts | 290° |
| 2026-05-05 12:14 | 55.27217 | -8.92363 | 36119 ft | 466 kts | 290° |
| 2026-05-05 12:14 | 55.29518 | -9.02984 | 36120 ft | 466 kts | 290° |
| 2026-05-05 12:15 | 55.31804 | -9.13572 | 36137 ft | 466 kts | 290° |
| 2026-05-05 12:15 | 55.34084 | -9.24205 | 36123 ft | 466 kts | 290° |
| 2026-05-05 12:16 | 55.36365 | -9.34897 | 36124 ft | 465 kts | 290° |
| 2026-05-05 12:16 | 55.38614 | -9.45500 | 36121 ft | 465 kts | 290° |
| 2026-05-05 12:17 | 55.40872 | -9.56181 | 36119 ft | 465 kts | 290° |
| 2026-05-05 12:17 | 55.43124 | -9.66870 | 36129 ft | 465 kts | 290° |
| 2026-05-05 12:18 | 55.45342 | -9.77472 | 36130 ft | 464 kts | 289° |
| 2026-05-05 12:18 | 55.47559 | -9.88099 | 36120 ft | 464 kts | 289° |
| 2026-05-05 12:19 | 55.49779 | -9.98746 | 36120 ft | 464 kts | 291° |
| 2026-05-05 12:19 | 55.52858 | -10.08774 | 36128 ft | 465 kts | 300° |
| 2026-05-05 12:20 | 55.56151 | -10.18616 | 36124 ft | 465 kts | 299° |
| 2026-05-05 12:20 | 55.59412 | -10.28443 | 36139 ft | 465 kts | 299° |
| 2026-05-05 12:21 | 55.62666 | -10.38336 | 36146 ft | 466 kts | 299° |
| 2026-05-05 12:21 | 55.65916 | -10.48282 | 36151 ft | 466 kts | 299° |
| 2026-05-05 12:22 | 55.69147 | -10.58203 | 36149 ft | 466 kts | 299° |
| 2026-05-05 12:22 | 55.72385 | -10.68199 | 36152 ft | 467 kts | 299° |
| 2026-05-05 12:23 | 55.75587 | -10.78126 | 36147 ft | 466 kts | 298° |
| 2026-05-05 12:23 | 55.78816 | -10.88160 | 36127 ft | 466 kts | 298° |
| 2026-05-05 12:24 | 55.82008 | -10.98137 | 36124 ft | 467 kts | 298° |
| 2026-05-05 12:24 | 55.85215 | -11.08205 | 36130 ft | 466 kts | 298° |
| 2026-05-05 12:25 | 55.88403 | -11.18256 | 36129 ft | 467 kts | 298° |
| 2026-05-05 12:25 | 55.91578 | -11.28296 | 36124 ft | 467 kts | 298° |
| 2026-05-05 12:26 | 55.94766 | -11.38425 | 36148 ft | 468 kts | 298° |
| 2026-05-05 12:26 | 55.97948 | -11.48572 | 36147 ft | 468 kts | 298° |
| 2026-05-05 12:27 | 56.01111 | -11.58706 | 36155 ft | 468 kts | 297° |
| 2026-05-05 12:27 | 56.04262 | -11.68845 | 36150 ft | 468 kts | 298° |
| 2026-05-05 12:28 | 56.07405 | -11.79009 | 36150 ft | 468 kts | 297° |